Time;durP1;ratioP1;P1;durP2;ratioP2;P2;SDS_P1;SDS_P2;PMS_P1;PMS_P2;Temp;Humidity;BMP_temperature;BMP_pressure;BME280_temperature;BME280_humidity;BME280_pressure;Samples;Min_cycle;Max_cycle;Signal;HPM_P1;HPM_P2
2022/10/22 00:02:23;;;;;;;5.07;1.17;;;;;;;17.84;92.77;98513.78;5072973;28;20063;-45
2022/10/22 00:04:50;;;;;;;5.53;1.65;;;;;;;17.87;93.26;98515.94;5072715;28;20405;-45
2022/10/22 00:07:19;;;;;;;5.22;1.50;;;;;;;17.95;94.18;98515.50;5072570;28;20490;-45
2022/10/22 00:09:45;;;;;;;9.20;1.80;;;;;;;18.05;93.88;98528.03;5072608;28;20021;-45
2022/10/22 00:12:12;;;;;;;5.07;1.50;;;;;;;17.96;93.39;98519.72;5072288;28;20044;-45
2022/10/22 00:14:38;;;;;;;4.57;1.45;;;;;;;18.01;94.57;98522.44;5072569;28;20387;-45
2022/10/22 00:17:04;;;;;;;5.85;1.33;;;;;;;18.09;94.72;98535.25;5072432;28;20025;-45
2022/10/22 00:19:30;;;;;;;8.88;2.15;;;;;;;18.20;94.76;98538.00;5072393;28;20512;-45
2022/10/22 00:21:57;;;;;;;3.22;1.60;;;;;;;18.27;93.59;98544.69;5071019;28;20033;-45
2022/10/22 00:24:23;;;;;;;7.18;2.00;;;;;;;18.28;94.32;98535.66;5072226;28;20052;-45
2022/10/22 00:26:49;;;;;;;5.20;1.83;;;;;;;18.51;95.24;98539.81;5072240;28;20143;-45
2022/10/22 00:29:17;;;;;;;5.70;1.45;;;;;;;18.69;93.87;98527.16;5071236;28;20916;-45
2022/10/22 00:31:48;;;;;;;3.28;0.90;;;;;;;18.68;92.20;98528.22;5072170;28;20024;-45
2022/10/22 00:34:16;;;;;;;2.65;1.00;;;;;;;18.47;91.72;98536.09;5072177;28;20032;-45
2022/10/22 00:36:42;;;;;;;6.30;1.60;;;;;;;18.40;93.05;98547.97;5071127;28;20021;-45
2022/10/22 00:39:08;;;;;;;2.08;0.80;;;;;;;18.51;94.33;98553.13;5072047;28;20074;-45
2022/10/22 00:41:33;;;;;;;12.18;2.80;;;;;;;18.54;94.42;98544.63;5070368;28;20039;-45
2022/10/22 00:44:03;;;;;;;4.15;1.27;;;;;;;18.72;94.90;98550.59;5072056;28;20498;-45
2022/10/22 00:46:29;;;;;;;4.22;1.33;;;;;;;18.97;95.98;98549.94;5071965;28;20020;-45
2022/10/22 00:48:58;;;;;;;2.03;0.80;;;;;;;19.22;95.95;98535.19;5071949;28;20035;-45
2022/10/22 00:51:31;;;;;;;4.60;0.80;;;;;;;19.10;93.57;98530.88;5071791;28;20062;-45
2022/10/22 00:54:03;;;;;;;4.72;0.80;;;;;;;18.87;92.33;98534.72;5071999;28;20103;-45
2022/10/22 00:56:29;;;;;;;6.30;1.15;;;;;;;18.68;90.84;98542.31;5070887;28;20043;-45
2022/10/22 00:58:59;;;;;;;5.03;1.20;;;;;;;18.79;94.20;98542.38;5104619;28;20399;-45
2022/10/22 01:01:27;;;;;;;4.32;0.98;;;;;;;19.03;95.14;98532.94;5071764;28;20085;-45
2022/10/22 01:03:53;;;;;;;4.50;0.90;;;;;;;19.23;94.43;98537.56;5071804;28;20040;-45
2022/10/22 01:06:25;;;;;;;4.15;0.80;;;;;;;19.31;93.60;98544.25;5071663;28;20024;-45
2022/10/22 01:08:57;;;;;;;14.35;2.55;;;;;;;19.18;91.72;98553.50;5071800;28;20494;-45
2022/10/22 01:11:45;;;;;;;5.25;1.67;;;;;;;18.94;89.91;98556.59;5071481;28;20052;-45
2022/10/22 01:14:29;;;;;;;3.50;0.60;;;;;;;18.84;89.46;98561.06;5071680;28;20109;-45
2022/10/22 01:17:09;;;;;;;5.28;0.85;;;;;;;18.77;89.72;98561.22;5104420;28;20025;-45
2022/10/22 01:19:50;;;;;;;4.20;1.00;;;;;;;18.68;88.80;98562.78;5071678;28;20521;-45
2022/10/22 01:23:05;;;;;;;2.30;0.55;;;;;;;18.47;86.03;98557.34;5071520;28;20059;-45
2022/10/22 01:25:36;;;;;;;4.25;1.10;;;;;;;18.25;87.38;98560.09;5069334;28;20107;-45
2022/10/22 01:28:39;;;;;;;2.72;0.75;;;;;;;18.18;85.61;98559.50;5069462;28;20538;-45
2022/10/22 01:31:08;;;;;;;3.97;0.90;;;;;;;18.30;87.85;98554.81;5069241;28;20049;-45
2022/10/22 01:33:35;;;;;;;3.63;0.73;;;;;;;18.50;89.80;98559.47;5069295;28;20122;-45
2022/10/22 01:36:03;;;;;;;9.80;1.60;;;;;;;18.73;89.84;98554.81;5052356;28;20429;-45
2022/10/22 01:38:29;;;;;;;5.88;2.05;;;;;;;18.78;90.24;98552.22;5069181;28;20043;-45
2022/10/22 01:40:56;;;;;;;14.00;2.83;;;;;;;18.80;90.38;98550.13;5052345;28;20564;-45
2022/10/22 01:43:22;;;;;;;7.28;1.70;;;;;;;18.60;90.24;98545.47;5069119;28;20397;-45
2022/10/22 01:45:51;;;;;;;9.05;2.15;;;;;;;18.44;90.57;98535.78;5069121;28;20082;-45
2022/10/22 01:48:33;;;;;;;8.82;1.25;;;;;;;18.42;91.30;98543.22;5069134;28;20033;-45
2022/10/22 01:51:17;;;;;;;8.05;1.98;;;;;;;18.45;91.98;98540.03;5052230;28;20163;-45
2022/10/22 01:54:08;;;;;;;10.32;2.00;;;;;;;18.72;91.58;98550.59;5054018;28;20029;-45
2022/10/22 01:57:11;;;;;;;5.78;1.98;;;;;;;18.73;90.68;98557.50;5074245;28;20076;-45
2022/10/22 01:59:42;;;;;;;8.82;3.03;;;;;;;18.51;90.59;98565.59;5074048;28;20089;-45
2022/10/22 02:02:22;;;;;;;10.55;1.85;;;;;;;18.29;91.36;98565.69;5107960;28;20032;-45
2022/10/22 02:05:16;;;;;;;12.27;2.10;;;;;;;18.12;92.47;98579.88;5108097;28;20028;-45
2022/10/22 02:07:49;;;;;;;9.50;2.10;;;;;;;18.03;93.72;98573.44;5074972;28;20566;-45
2022/10/22 02:10:17;;;;;;;9.80;2.05;;;;;;;17.93;93.17;98583.97;5074678;28;20045;-45
2022/10/22 02:12:49;;;;;;;12.85;2.00;;;;;;;17.71;93.00;98595.41;5074831;28;20506;-45
2022/10/22 02:15:17;;;;;;;9.95;1.70;;;;;;;17.64;93.73;98597.44;5074885;28;20409;-45
2022/10/22 02:17:45;;;;;;;9.13;1.90;;;;;;;17.61;94.52;98603.25;5074856;28;20024;-45
2022/10/22 02:20:18;;;;;;;14.40;2.05;;;;;;;17.74;95.60;98604.69;5073705;28;20032;-45
2022/10/22 02:22:44;;;;;;;5.10;1.70;;;;;;;17.88;95.97;98613.13;5057369;28;20032;-45
2022/10/22 02:25:11;;;;;;;14.00;2.47;;;;;;;17.76;95.27;98610.56;5073578;28;20032;-45
2022/10/22 02:27:43;;;;;;;5.25;2.28;;;;;;;17.71;96.05;98613.19;5073256;28;20043;-45
2022/10/22 02:30:20;;;;;;;12.15;5.10;;;;;;;17.71;96.58;98606.00;5073438;28;20036;-45
2022/10/22 02:32:54;;;;;;;8.60;1.83;;;;;;;17.70;97.09;98593.78;5073178;28;20028;-45
2022/10/22 02:35:24;;;;;;;7.18;1.98;;;;;;;17.77;97.29;98597.06;5107080;28;20029;-45
2022/10/22 02:37:51;;;;;;;9.75;2.22;;;;;;;17.76;97.27;98592.78;5073197;28;20032;-45
2022/10/22 02:40:17;;;;;;;10.63;2.13;;;;;;;17.62;96.84;98583.59;5074359;28;20024;-44
2022/10/22 02:42:47;;;;;;;5.63;2.00;;;;;;;17.37;96.51;98579.63;5074316;28;20043;-45
2022/10/22 02:45:13;;;;;;;11.55;2.67;;;;;;;17.14;96.65;98574.53;5072891;28;20052;-45
2022/10/22 02:47:38;;;;;;;10.25;1.90;;;;;;;17.03;97.86;98568.31;5074239;28;20017;-44
2022/10/22 02:50:05;;;;;;;9.93;2.28;;;;;;;17.06;98.59;98581.06;5072868;28;20120;-45
2022/10/22 02:52:31;;;;;;;16.75;3.00;;;;;;;16.92;98.26;98582.47;5072779;28;20086;-45
2022/10/22 02:54:56;;;;;;;8.73;2.63;;;;;;;16.81;98.88;98586.81;5074108;28;20025;-45
2022/10/22 02:57:22;;;;;;;15.13;3.65;;;;;;;16.74;99.43;98594.09;5072747;28;20063;-45
2022/10/22 02:59:48;;;;;;;10.27;2.38;;;;;;;16.97;100.00;98586.00;5074312;28;20024;-44
2022/10/22 03:02:13;;;;;;;4.88;1.60;;;;;;;17.19;100.00;98576.47;5073922;28;20033;-45
2022/10/22 03:04:39;;;;;;;5.97;2.15;;;;;;;17.13;99.66;98571.09;5073570;28;20021;-44
2022/10/22 03:07:05;;;;;;;6.75;2.15;;;;;;;16.95;98.25;98574.81;5072511;28;20059;-44
2022/10/22 03:09:30;;;;;;;12.98;2.80;;;;;;;16.69;96.73;98551.66;5072629;28;20418;-44
2022/10/22 03:11:56;;;;;;;4.47;1.75;;;;;;;16.40;95.57;98533.22;5072204;28;20080;-45
2022/10/22 03:14:22;;;;;;;6.88;1.83;;;;;;;16.17;95.64;98532.31;5073719;28;20024;-45
2022/10/22 03:16:48;;;;;;;9.75;2.10;;;;;;;16.07;96.54;98563.91;5073681;28;20024;-45
2022/10/22 03:19:13;;;;;;;11.00;2.47;;;;;;;16.02;97.50;98573.59;5073709;28;20112;-45
2022/10/22 03:21:58;;;;;;;14.90;2.70;;;;;;;16.06;99.12;98583.50;5073596;28;20039;-45
2022/10/22 03:24:45;;;;;;;9.60;2.22;;;;;;;16.22;100.00;98602.28;5072299;28;20390;-45
2022/10/22 03:27:13;;;;;;;7.65;2.20;;;;;;;16.21;99.93;98603.34;5073395;28;20532;-44
2022/10/22 03:29:40;;;;;;;8.32;1.80;;;;;;;16.21;100.00;98606.78;5106035;28;20024;-45
2022/10/22 03:32:06;;;;;;;6.18;2.00;;;;;;;16.20;100.00;98607.84;5073270;28;20028;-45
2022/10/22 03:34:32;;;;;;;5.68;1.75;;;;;;;16.34;100.00;98601.19;5073366;28;20069;-45
2022/10/22 03:37:00;;;;;;;11.40;2.20;;;;;;;16.50;100.00;98606.72;5071957;28;20029;-44
2022/10/22 03:39:28;;;;;;;6.55;1.90;;;;;;;16.52;100.00;98610.75;5073201;28;20013;-45
2022/10/22 03:41:54;;;;;;;4.93;1.60;;;;;;;16.60;100.00;98624.63;5073145;28;20031;-45
2022/10/22 03:44:21;;;;;;;7.18;2.17;;;;;;;16.63;100.00;98629.47;5071783;28;20046;-45
2022/10/22 03:46:47;;;;;;;18.45;2.65;;;;;;;16.63;100.00;98626.81;5071800;28;20028;-44
2022/10/22 03:49:13;;;;;;;15.82;2.65;;;;;;;16.81;100.00;98629.22;5071704;28;20024;-45
2022/10/22 03:51:38;;;;;;;5.28;2.00;;;;;;;16.99;100.00;98627.38;5071552;28;20028;-45
2022/10/22 03:54:04;;;;;;;13.75;2.70;;;;;;;16.93;99.86;98637.09;5072976;28;20482;-45
2022/10/22 03:56:30;;;;;;;8.93;2.38;;;;;;;16.77;98.84;98650.09;5105497;28;20494;-45
2022/10/22 03:58:58;;;;;;;8.07;2.13;;;;;;;16.54;98.16;98648.41;5071537;28;20020;-45
2022/10/22 04:01:25;;;;;;;7.28;2.00;;;;;;;16.40;98.22;98648.94;5072773;28;20128;-45
2022/10/22 04:03:50;;;;;;;6.47;2.00;;;;;;;16.32;98.42;98643.00;5072693;28;20023;-44
2022/10/22 04:06:16;;;;;;;5.13;1.80;;;;;;;16.23;98.43;98630.38;5072691;28;20020;-45
2022/10/22 04:08:43;;;;;;;4.57;1.85;;;;;;;16.13;98.36;98636.28;5105193;28;20027;-45
2022/10/22 04:11:11;;;;;;;6.72;2.25;;;;;;;16.04;98.31;98635.88;5070956;28;20040;-45
2022/10/22 04:13:36;;;;;;;6.68;1.80;;;;;;;16.01;98.56;98638.19;5071270;28;20387;-45
2022/10/22 04:16:11;;;;;;;5.15;1.40;;;;;;;15.94;98.70;98638.34;5104350;28;20085;-44
2022/10/22 04:18:37;;;;;;;12.05;1.80;;;;;;;15.90;98.94;98634.56;5073056;28;20485;-45
2022/10/22 04:21:03;;;;;;;9.00;1.95;;;;;;;15.90;99.19;98639.84;5071033;28;20029;-45
2022/10/22 04:23:29;;;;;;;2.90;1.27;;;;;;;15.94;99.46;98633.84;5072328;28;20095;-45
2022/10/22 04:25:59;;;;;;;8.30;1.50;;;;;;;16.10;100.00;98632.28;5071052;28;20458;-45
2022/10/22 04:28:25;;;;;;;9.27;1.70;;;;;;;16.34;100.00;98632.97;5072305;28;20071;-45
2022/10/22 04:30:50;;;;;;;7.47;1.33;;;;;;;16.54;99.67;98644.94;5104701;28;20025;-45
2022/10/22 04:33:17;;;;;;;10.68;1.92;;;;;;;16.72;99.58;98642.06;5072216;28;20371;-45
2022/10/22 04:35:43;;;;;;;7.43;1.80;;;;;;;16.89;99.34;98639.44;5072244;28;20095;-45
2022/10/22 04:38:08;;;;;;;7.85;1.98;;;;;;;16.87;97.89;98646.03;5070811;28;20649;-45
2022/10/22 04:40:34;;;;;;;3.08;1.67;;;;;;;16.62;95.74;98649.84;5070767;28;20513;-45
2022/10/22 04:43:00;;;;;;;7.43;1.90;;;;;;;16.33;94.87;98652.53;5072421;28;20101;-45
2022/10/22 04:45:25;;;;;;;4.68;1.60;;;;;;;16.11;94.61;98657.72;5070745;28;20028;-45
2022/10/22 04:47:51;;;;;;;6.55;2.10;;;;;;;15.89;94.00;98668.16;5070702;28;20425;-45
2022/10/22 04:50:17;;;;;;;6.18;1.83;;;;;;;15.70;94.88;98664.84;5070645;28;20032;-45
2022/10/22 04:52:42;;;;;;;3.67;1.20;;;;;;;15.56;95.33;98663.50;5071913;28;20029;-45
2022/10/22 04:55:08;;;;;;;2.17;0.90;;;;;;;15.38;94.29;98661.81;5071884;28;20100;-45
2022/10/22 04:57:34;;;;;;;8.88;1.25;;;;;;;15.20;94.78;98652.16;5071925;28;20031;-45
2022/10/22 05:00:00;;;;;;;7.82;1.67;;;;;;;15.10;95.61;98655.38;5071819;28;20491;-45
2022/10/22 05:02:25;;;;;;;5.00;1.45;;;;;;;15.12;97.09;98652.50;5070538;28;20498;-45
2022/10/22 05:04:51;;;;;;;7.15;1.77;;;;;;;15.14;97.73;98648.59;5087724;28;20039;-45
2022/10/22 05:07:17;;;;;;;10.38;2.28;;;;;;;15.12;98.08;98657.78;5071690;28;20016;-45
2022/10/22 05:09:43;;;;;;;5.68;1.92;;;;;;;15.27;99.62;98654.66;5071830;28;20024;-45
2022/10/22 05:12:09;;;;;;;4.63;1.88;;;;;;;15.38;99.59;98665.25;5071402;28;20048;-45
2022/10/22 05:14:34;;;;;;;5.00;1.33;;;;;;;15.41;99.48;98668.47;5071766;28;20025;-45
2022/10/22 05:17:00;;;;;;;4.10;1.75;;;;;;;15.27;98.82;98674.00;5070368;28;20028;-45
2022/10/22 05:19:29;;;;;;;13.10;2.58;;;;;;;15.22;99.09;98681.00;5070403;28;20052;-45
2022/10/22 05:22:03;;;;;;;7.28;1.70;;;;;;;15.41;100.00;98681.69;5070242;28;20035;-45
2022/10/22 05:24:31;;;;;;;3.13;2.30;;;;;;;15.46;99.96;98685.25;5071668;28;20108;-45
2022/10/22 05:26:58;;;;;;;8.43;2.53;;;;;;;15.40;99.36;98690.66;5072127;28;20070;-45
2022/10/22 05:29:24;;;;;;;7.65;1.80;;;;;;;15.47;99.93;98693.97;5075699;28;20513;-45
2022/10/22 05:31:50;;;;;;;10.75;2.47;;;;;;;15.33;98.81;98690.75;5074274;28;20056;-45
2022/10/22 05:34:16;;;;;;;5.63;1.55;;;;;;;15.32;98.44;98689.97;5075568;28;20446;-45
2022/10/22 05:36:42;;;;;;;4.22;1.13;;;;;;;15.17;97.03;98689.63;5075604;28;20095;-45
2022/10/22 05:39:08;;;;;;;9.50;1.60;;;;;;;15.03;96.45;98691.72;5057479;28;20116;-45
2022/10/22 05:41:34;;;;;;;7.38;1.77;;;;;;;14.87;96.60;98690.53;5074201;28;20044;-45
2022/10/22 05:44:01;;;;;;;8.55;2.10;;;;;;;14.78;97.22;98703.25;5075445;28;20013;-45
2022/10/22 05:46:29;;;;;;;10.75;1.80;;;;;;;14.85;98.61;98695.25;5073997;28;20024;-45
2022/10/22 05:48:58;;;;;;;8.23;2.53;;;;;;;15.34;100.00;98697.69;5075322;28;20536;-44
2022/10/22 05:51:25;;;;;;;9.75;2.35;;;;;;;15.82;100.00;98693.16;5074136;28;20091;-45
2022/10/22 05:53:54;;;;;;;8.70;2.10;;;;;;;15.96;100.00;98695.28;5107854;28;20070;-45
2022/10/22 05:56:20;;;;;;;4.10;1.10;;;;;;;16.00;98.75;98700.94;5074198;28;20033;-45
2022/10/22 05:58:46;;;;;;;6.10;2.03;;;;;;;15.79;96.18;98702.34;5075426;28;20474;-45
2022/10/22 06:01:23;;;;;;;11.85;2.28;;;;;;;15.60;95.82;98700.88;5075060;28;20107;-45
2022/10/22 06:03:53;;;;;;;11.43;2.17;;;;;;;15.46;96.13;98705.59;5073897;28;20027;-45
2022/10/22 06:06:33;;;;;;;7.25;2.08;;;;;;;15.23;96.14;98695.81;5074978;28;20024;-44
2022/10/22 06:09:17;;;;;;;5.75;1.85;;;;;;;15.21;97.31;98705.81;5074926;28;20435;-45
2022/10/22 06:11:43;;;;;;;6.47;1.83;;;;;;;15.11;96.71;98703.75;5074676;28;20033;-45
2022/10/22 06:14:10;;;;;;;7.68;1.90;;;;;;;14.95;96.13;98706.06;5074758;28;20498;-45
2022/10/22 06:16:35;;;;;;;10.32;1.88;;;;;;;14.85;96.36;98716.38;5073475;28;20490;-45
2022/10/22 06:19:02;;;;;;;10.80;2.00;;;;;;;14.85;97.29;98716.38;5073447;28;20029;-45
2022/10/22 06:21:29;;;;;;;6.90;1.90;;;;;;;14.86;97.54;98717.97;5107364;28;20502;-45
2022/10/22 06:23:56;;;;;;;17.80;1.90;;;;;;;14.91;97.89;98722.56;5107284;28;20032;-45
2022/10/22 06:26:22;;;;;;;7.53;2.17;;;;;;;14.88;97.45;98725.69;5107232;28;20020;-45
2022/10/22 06:28:47;;;;;;;7.88;2.92;;;;;;;15.09;99.32;98722.50;5107203;28;20120;-45
2022/10/22 06:31:13;;;;;;;7.60;1.98;;;;;;;15.43;99.77;98722.72;5074466;28;20104;-45
2022/10/22 06:33:42;;;;;;;12.23;2.58;;;;;;;15.73;99.89;98732.38;5073245;28;20302;-45
2022/10/22 06:36:11;;;;;;;10.60;2.28;;;;;;;15.91;99.36;98726.94;5073163;28;20032;-45
2022/10/22 06:38:37;;;;;;;11.18;1.65;;;;;;;16.08;98.77;98732.31;5072435;28;20079;-45
2022/10/22 06:41:11;;;;;;;8.45;1.58;;;;;;;16.01;96.98;98730.84;5074333;28;20421;-45
2022/10/22 06:43:37;;;;;;;8.77;1.60;;;;;;;16.04;97.01;98738.34;5073073;28;20417;-45
2022/10/22 06:46:06;;;;;;;7.93;1.80;;;;;;;16.31;97.35;98733.28;5074334;28;20099;-45
2022/10/22 06:48:34;;;;;;;7.85;1.73;;;;;;;16.93;97.13;98730.69;5106780;28;20044;-45
2022/10/22 06:51:02;;;;;;;9.38;1.92;;;;;;;17.61;94.68;98730.63;5074578;28;20056;-45
2022/10/22 06:53:28;;;;;;;3.10;1.95;;;;;;;18.05;93.67;98735.16;5106727;28;20021;-45
2022/10/22 06:55:54;;;;;;;9.40;1.92;;;;;;;18.55;92.07;98734.13;5073036;28;20444;-45
2022/10/22 06:58:19;;;;;;;6.40;1.45;;;;;;;18.35;89.41;98735.53;5072802;28;20108;-45
2022/10/22 07:00:45;;;;;;;14.07;1.98;;;;;;;17.98;89.91;98738.03;5106591;28;20044;-45
2022/10/22 07:03:12;;;;;;;6.50;2.42;;;;;;;17.48;89.87;98736.28;5072706;28;20032;-45
2022/10/22 07:05:39;;;;;;;7.20;1.73;;;;;;;16.93;90.49;98743.94;5073955;28;20021;-45
2022/10/22 07:08:05;;;;;;;14.55;2.55;;;;;;;16.73;93.30;98747.00;5106507;28;20037;-45
2022/10/22 07:10:31;;;;;;;6.13;2.15;;;;;;;17.36;95.30;98744.31;5072337;28;20055;-45
2022/10/22 07:12:57;;;;;;;4.80;1.30;;;;;;;17.82;94.00;98747.63;5072528;28;20028;-45
2022/10/22 07:15:23;;;;;;;8.68;1.70;;;;;;;18.75;92.75;98744.97;5073812;28;20028;-45
2022/10/22 07:17:50;;;;;;;7.97;1.40;;;;;;;19.72;90.41;98741.44;5073749;28;20032;-45
2022/10/22 07:20:19;;;;;;;5.22;1.40;;;;;;;20.53;87.73;98743.56;5073647;28;20029;-45
2022/10/22 07:22:45;;;;;;;4.10;1.20;;;;;;;21.08;86.42;98745.78;5073506;28;20032;-45
2022/10/22 07:25:11;;;;;;;8.07;1.80;;;;;;;21.49;86.92;98751.91;5073602;28;20029;-45
2022/10/22 07:27:37;;;;;;;8.77;1.73;;;;;;;21.65;86.55;98755.34;5106008;27;20490;-45
2022/10/22 07:30:03;;;;;;;9.98;1.77;;;;;;;21.71;86.25;98753.44;5072255;28;20397;-45
2022/10/22 07:32:29;;;;;;;9.88;1.70;;;;;;;21.98;86.38;98761.13;5105979;28;20025;-45
2022/10/22 07:34:55;;;;;;;11.27;1.40;;;;;;;22.51;85.98;98756.06;5073315;28;20101;-46
2022/10/22 07:37:20;;;;;;;5.28;1.30;;;;;;;23.10;84.40;98756.19;5071982;28;20410;-46
2022/10/22 07:39:48;;;;;;;5.03;1.17;;;;;;;23.60;81.50;98762.16;5072025;28;20065;-46
2022/10/22 07:42:13;;;;;;;11.20;1.38;;;;;;;24.00;79.81;98760.13;5105762;28;20506;-46
2022/10/22 07:44:39;;;;;;;6.70;1.40;;;;;;;24.27;77.30;98758.75;5073100;28;20021;-46
2022/10/22 07:47:05;;;;;;;14.85;1.92;;;;;;;24.42;76.84;98755.84;5073103;28;20017;-46
2022/10/22 07:49:31;;;;;;;8.02;1.38;;;;;;;24.75;75.26;98769.38;5073096;28;20029;-46
2022/10/22 07:51:57;;;;;;;5.20;1.20;;;;;;;25.21;72.23;98770.50;5071861;28;20469;-46
2022/10/22 07:54:23;;;;;;;2.47;0.95;;;;;;;25.60;70.87;98780.84;5071672;28;20490;-46
2022/10/22 07:56:49;;;;;;;6.47;1.20;;;;;;;26.12;68.78;98780.69;5072821;28;20027;-46
2022/10/22 07:59:15;;;;;;;5.47;1.25;;;;;;;26.63;66.10;98770.75;5072791;28;20024;-46
2022/10/22 08:01:40;;;;;;;5.13;0.70;;;;;;;27.12;62.73;98774.41;5072848;28;20032;-46
2022/10/22 08:04:08;;;;;;;5.40;0.80;;;;;;;27.49;60.46;98767.06;5105677;28;20394;-44
2022/10/22 08:06:34;;;;;;;3.72;0.82;;;;;;;27.77;58.10;98767.66;5072727;28;20461;-44
2022/10/22 08:09:01;;;;;;;11.07;1.80;;;;;;;28.08;58.11;98777.59;5105219;28;20032;-44
2022/10/22 08:11:26;;;;;;;8.02;1.35;;;;;;;28.41;58.13;98774.47;5072279;28;20136;-44
2022/10/22 08:13:52;;;;;;;6.00;1.48;;;;;;;28.81;56.00;98768.94;5072562;28;20482;-44
2022/10/22 08:16:18;;;;;;;4.60;1.17;;;;;;;29.21;55.26;98782.25;5072689;28;20032;-44
2022/10/22 08:18:44;;;;;;;15.05;2.70;;;;;;;29.52;56.35;98781.22;5072427;28;20558;-44
2022/10/22 08:21:11;;;;;;;5.55;1.77;;;;;;;29.66;55.24;98779.91;5072419;28;20090;-44
2022/10/22 08:23:37;;;;;;;10.10;1.63;;;;;;;29.72;54.65;98771.63;5072333;28;20016;-44
2022/10/22 08:26:04;;;;;;;4.00;1.70;;;;;;;29.85;54.48;98773.31;5104983;28;20086;-44
2022/10/22 08:28:31;;;;;;;4.40;1.80;;;;;;;29.80;52.94;98774.31;5072255;28;20024;-44
2022/10/22 08:30:58;;;;;;;15.23;2.75;;;;;;;28.36;56.75;98780.81;5072100;28;20021;-44
2022/10/22 08:33:23;;;;;;;11.40;2.35;;;;;;;27.25;59.62;98784.38;5072257;28;20013;-44
2022/10/22 08:35:51;;;;;;;7.40;1.60;;;;;;;27.06;59.64;98786.41;5105030;28;20031;-44
2022/10/22 08:38:18;;;;;;;11.57;2.72;;;;;;;26.77;61.26;98782.25;5070831;28;20082;-44
2022/10/22 08:40:48;;;;;;;10.63;1.77;;;;;;;27.05;60.39;98790.22;5072055;28;20031;-44
2022/10/22 08:43:41;;;;;;;8.07;1.63;;;;;;;27.11;58.47;98791.69;5104746;28;20040;-44
2022/10/22 08:46:24;;;;;;;19.98;4.82;;;;;;;27.60;58.62;98795.31;5071997;28;20036;-44
2022/10/22 08:48:57;;;;;;;16.70;2.30;;;;;;;28.40;57.86;98789.09;5071982;28;20039;-44
2022/10/22 08:51:26;;;;;;;2.00;1.27;;;;;;;29.44;54.35;98788.25;5072102;28;20016;-44
2022/10/22 08:54:13;;;;;;;12.18;1.30;;;;;;;30.18;53.08;98791.59;5104539;28;20021;-44
2022/10/22 08:56:44;;;;;;;12.27;1.30;;;;;;;30.84;52.15;98785.56;5104403;28;20054;-44
2022/10/22 08:59:20;;;;;;;11.35;1.35;;;;;;;31.14;51.38;98783.53;5070806;28;20101;-44
2022/10/22 09:01:48;;;;;;;7.53;1.17;;;;;;;31.48;50.47;98792.47;5088113;28;20025;-44
2022/10/22 09:04:25;;;;;;;3.05;1.10;;;;;;;31.83;49.97;98792.84;5071864;28;20028;-44
2022/10/22 09:06:54;;;;;;;9.30;1.13;;;;;;;32.23;49.11;98781.28;5070596;28;20111;-44
2022/10/22 09:09:20;;;;;;;6.57;1.13;;;;;;;32.63;47.07;98780.53;5071787;28;20033;-45
2022/10/22 09:11:51;;;;;;;6.97;1.30;;;;;;;32.90;45.84;98782.78;5103895;28;20079;-45
2022/10/22 09:14:21;;;;;;;8.63;1.63;;;;;;;33.12;43.61;98778.75;5070438;28;20107;-45
2022/10/22 09:17:05;;;;;;;5.65;1.10;;;;;;;33.26;44.26;98784.56;5071640;28;20016;-44
2022/10/22 09:20:01;;;;;;;6.65;1.15;;;;;;;33.65;44.90;98779.34;5104222;28;20029;-45
2022/10/22 09:22:44;;;;;;;9.77;2.08;;;;;;;33.78;43.18;98783.53;5071662;28;20412;-47
2022/10/22 09:25:29;;;;;;;5.25;1.10;;;;;;;33.69;41.40;98774.00;5071564;28;20047;-47
2022/10/22 09:27:58;;;;;;;3.28;0.90;;;;;;;34.14;41.01;98768.03;5071927;28;20033;-47
2022/10/22 09:30:27;;;;;;;8.90;1.73;;;;;;;34.48;40.30;98767.59;5086664;28;20028;-47
2022/10/22 09:33:05;;;;;;;2.90;0.90;;;;;;;34.55;38.90;98767.72;5103969;28;20032;-47
2022/10/22 09:35:53;;;;;;;9.63;1.90;;;;;;;34.77;38.44;98769.78;5104044;28;20073;-47
2022/10/22 09:38:24;;;;;;;17.30;2.63;;;;;;;34.95;36.66;98769.31;5104031;28;20032;-47
2022/10/22 09:40:53;;;;;;;2.42;1.60;;;;;;;34.77;33.97;98761.59;5070168;28;20035;-47
2022/10/22 09:43:19;;;;;;;7.15;1.27;;;;;;;34.48;33.36;98764.88;5071510;28;20025;-47
2022/10/22 09:45:46;;;;;;;4.18;0.85;;;;;;;33.55;31.60;98767.03;5070026;28;20024;-47
2022/10/22 09:48:29;;;;;;;5.40;0.95;;;;;;;33.06;31.88;98755.63;5071315;28;20028;-47
2022/10/22 09:51:10;;;;;;;3.75;0.80;;;;;;;32.66;31.92;98751.88;5071216;28;20029;-47
2022/10/22 09:53:41;;;;;;;3.00;0.88;;;;;;;32.00;32.56;98751.13;5071391;28;20105;-47
2022/10/22 09:56:15;;;;;;;3.15;1.55;;;;;;;32.18;31.47;98754.38;5071396;28;20449;-47
2022/10/22 09:58:49;;;;;;;1.63;0.60;;;;;;;31.58;32.27;98755.97;5071339;28;20029;-45
2022/10/22 10:01:21;;;;;;;;;;;;;;;31.50;32.69;98754.94;5071707;28;20028;-44
2022/10/22 10:03:48;;;;;;;2.72;0.50;;;;;;;31.11;32.16;98762.53;5071228;28;19908;-44
2022/10/22 10:06:19;;;;;;;4.35;1.15;;;;;;;31.01;32.86;98754.84;5071205;28;20060;-44
2022/10/22 10:08:45;;;;;;;3.80;0.70;;;;;;;31.29;32.88;98749.59;5103871;28;20032;-44
2022/10/22 10:11:27;;;;;;;3.08;0.60;;;;;;;31.36;32.46;98752.50;5069730;28;20503;-44
2022/10/22 10:14:03;;;;;;;1.98;0.75;;;;;;;31.56;31.40;98755.50;5071597;28;20056;-44
2022/10/22 10:16:48;;;;;;;3.13;0.52;;;;;;;31.14;32.34;98752.94;5074914;28;20032;-44
2022/10/22 10:19:27;;;;;;;3.55;1.02;;;;;;;30.77;33.59;98756.28;5074824;28;20034;-44
2022/10/22 10:22:20;;;;;;;4.00;0.60;;;;;;;30.81;32.72;98753.72;5107380;28;20067;-44
2022/10/22 10:25:22;;;;;;;4.88;0.80;;;;;;;30.73;33.53;98758.09;5063201;28;20124;-44
2022/10/22 10:28:08;;;;;;;6.32;1.13;;;;;;;30.63;33.14;98755.78;5074593;28;20025;-44
2022/10/22 10:30:40;;;;;;;4.50;1.10;;;;;;;30.13;33.60;98754.69;5074597;28;20391;-44
2022/10/22 10:33:17;;;;;;;1.27;0.60;;;;;;;29.50;34.41;98754.50;5073342;28;20086;-44
2022/10/22 10:36:14;;;;;;;2.17;0.60;;;;;;;29.49;35.15;98750.22;5074517;28;20112;-44
2022/10/22 10:39:08;;;;;;;3.25;0.82;;;;;;;29.94;33.89;98759.72;5107261;28;20112;-44
2022/10/22 10:42:03;;;;;;;4.13;1.67;;;;;;;30.32;33.74;98754.25;5071268;28;20137;-44
2022/10/22 10:44:37;;;;;;;;;;;;;;;31.31;33.70;98750.03;5073561;28;20028;-44
2022/10/22 10:47:44;;;;;;;3.42;0.93;;;;;;;32.02;31.06;98748.06;5073038;28;20394;-44
2022/10/22 10:50:42;;;;;;;4.95;1.08;;;;;;;32.01;30.91;98747.25;5106825;28;20519;-44
2022/10/22 10:53:51;;;;;;;2.35;0.63;;;;;;;31.79;31.20;98750.41;5074557;28;20089;-44
2022/10/22 10:56:46;;;;;;;2.10;0.80;;;;;;;31.82;31.78;98747.03;5106704;28;20402;-44
2022/10/22 10:59:49;;;;;;;3.25;1.02;;;;;;;32.04;31.08;98746.59;5074206;28;20024;-44
2022/10/22 11:03:01;;;;;;;3.70;0.70;;;;;;;32.50;30.11;98748.28;5073983;28;20483;-44
2022/10/22 11:05:44;;;;;;;2.10;0.65;;;;;;;32.28;30.08;98741.44;5073990;28;20020;-44
2022/10/22 11:08:31;;;;;;;4.50;1.50;;;;;;;32.54;30.71;98743.72;5073955;28;20032;-44
2022/10/22 11:11:05;;;;;;;5.25;1.15;;;;;;;33.32;30.24;98739.63;5072241;28;20102;-44
2022/10/22 11:13:34;;;;;;;;;;;;;;;33.99;28.77;98738.91;5074273;28;20024;-47
2022/10/22 11:16:25;;;;;;;3.45;1.15;;;;;;;33.07;29.34;98735.47;5073775;28;19912;-47
2022/10/22 11:19:03;;;;;;;4.72;1.13;;;;;;;32.70;30.06;98741.09;5106249;28;20518;-44
2022/10/22 11:22:20;;;;;;;2.85;1.10;;;;;;;32.39;30.63;98737.09;5073693;28;20036;-44
2022/10/22 11:25:02;;;;;;;7.05;1.45;;;;;;;31.87;31.54;98735.16;5064789;28;20406;-44
2022/10/22 11:27:36;;;;;;;5.45;1.65;;;;;;;31.88;31.84;98726.66;5106161;27;20028;-44
2022/10/22 11:30:12;;;;;;;9.13;1.35;;;;;;;32.30;32.08;98718.25;5073540;28;20605;-44
2022/10/22 11:32:40;;;;;;;4.53;1.35;;;;;;;32.57;30.78;98721.34;5088927;28;20165;-44
2022/10/22 11:35:12;;;;;;;2.78;1.20;;;;;;;32.36;31.44;98716.88;5073311;28;20036;-44
2022/10/22 11:37:38;;;;;;;9.43;1.60;;;;;;;32.61;31.26;98712.13;5073392;28;20031;-44
2022/10/22 11:40:20;;;;;;;6.05;1.50;;;;;;;32.30;31.55;98712.81;5073585;28;20021;-44
2022/10/22 11:42:56;;;;;;;5.55;1.40;;;;;;;32.01;32.19;98708.47;5105830;28;20040;-45
2022/10/22 11:45:27;;;;;;;4.78;1.90;;;;;;;31.83;32.64;98700.56;5073251;28;20075;-44
2022/10/22 11:48:08;;;;;;;4.07;1.45;;;;;;;31.83;32.04;98699.75;5073132;28;20032;-44
2022/10/22 11:50:40;;;;;;;7.40;1.90;;;;;;;31.90;32.68;98701.91;5105522;28;20111;-45
2022/10/22 11:53:26;;;;;;;8.60;2.10;;;;;;;32.00;32.77;98704.19;5105579;27;20494;-44